createdAt,value
2022-10-17T00:01:23.183Z,5.70
2022-10-17T00:03:52.347Z,5.50
2022-10-17T00:06:20.739Z,5.60
2022-10-17T00:08:50.405Z,4.90
2022-10-17T00:11:22.392Z,5.43
2022-10-17T00:13:52.961Z,5.72
2022-10-17T00:16:25.792Z,5.13
2022-10-17T00:18:54.992Z,4.30
2022-10-17T00:21:25.100Z,4.47
2022-10-17T00:23:55.021Z,5.85
2022-10-17T00:26:25.340Z,5.18
2022-10-17T00:28:54.403Z,5.60
2022-10-17T00:31:25.105Z,4.90
2022-10-17T00:33:53.954Z,4.40
2022-10-17T00:36:25.106Z,4.38
2022-10-17T00:38:55.464Z,6.35
2022-10-17T00:41:28.574Z,4.28
2022-10-17T00:44:00.406Z,5.80
2022-10-17T00:46:31.626Z,4.53
2022-10-17T00:49:04.417Z,6.10
2022-10-17T00:51:37.814Z,4.75
2022-10-17T00:54:07.978Z,4.50
2022-10-17T00:56:38.395Z,4.57
2022-10-17T00:59:08.371Z,4.50
2022-10-17T01:01:39.837Z,4.88
2022-10-17T01:04:09.173Z,5.30
2022-10-17T01:06:37.529Z,4.40
2022-10-17T01:09:06.547Z,4.82
2022-10-17T01:11:45.713Z,4.57
2022-10-17T01:14:23.987Z,4.22
2022-10-17T01:16:59.579Z,3.80
2022-10-17T01:19:45.500Z,3.83
2022-10-17T01:22:23.842Z,3.83
2022-10-17T01:25:12.896Z,4.03
2022-10-17T01:28:00.338Z,3.92
2022-10-17T01:30:57.400Z,3.55
2022-10-17T01:33:47.758Z,3.30
2022-10-17T01:36:24.822Z,3.13
2022-10-17T01:39:02.355Z,3.40
2022-10-17T01:41:40.413Z,3.97
2022-10-17T01:44:15.722Z,3.70
2022-10-17T01:46:49.767Z,2.97
2022-10-17T01:49:22.452Z,2.97
2022-10-17T01:51:54.998Z,3.40
2022-10-17T01:54:28.310Z,3.40
2022-10-17T01:57:00.863Z,3.08
2022-10-17T01:59:38.310Z,3.00
2022-10-17T02:02:11.425Z,2.90
2022-10-17T02:04:40.193Z,3.17
2022-10-17T02:07:09.990Z,3.25
2022-10-17T02:09:39.610Z,3.03
2022-10-17T02:12:23.563Z,3.03
2022-10-17T02:15:05.900Z,2.85
2022-10-17T02:17:46.672Z,2.80
2022-10-17T02:20:21.823Z,2.63
2022-10-17T02:22:56.914Z,2.42
2022-10-17T02:25:37.210Z,2.50
2022-10-17T02:28:18.512Z,2.22
2022-10-17T02:30:54.906Z,2.30
2022-10-17T02:33:28.817Z,2.08
2022-10-17T02:36:04.452Z,2.40
2022-10-17T02:38:35.410Z,2.55
2022-10-17T02:41:05.644Z,2.25
2022-10-17T02:43:36.221Z,2.30
2022-10-17T02:46:06.275Z,2.08
2022-10-17T02:48:41.329Z,2.22
2022-10-17T02:51:16.474Z,3.22
2022-10-17T02:53:50.857Z,2.22
2022-10-17T02:56:21.596Z,2.67
2022-10-17T02:58:55.577Z,2.75
2022-10-17T03:01:25.437Z,2.50
2022-10-17T03:04:07.269Z,2.30
2022-10-17T03:06:36.419Z,2.33
2022-10-17T03:09:05.693Z,2.40
2022-10-17T03:11:34.222Z,2.65
2022-10-17T03:14:02.708Z,2.92
2022-10-17T03:16:31.928Z,2.53
2022-10-17T03:19:00.293Z,3.05
2022-10-17T03:21:30.673Z,3.60
2022-10-17T03:23:59.333Z,2.80
2022-10-17T03:26:29.510Z,3.20
2022-10-17T03:28:59.034Z,3.08
2022-10-17T03:31:30.471Z,3.38
2022-10-17T03:34:00.221Z,4.45
2022-10-17T03:36:29.974Z,4.32
2022-10-17T03:38:58.970Z,3.10
2022-10-17T03:41:28.034Z,3.55
2022-10-17T03:43:56.374Z,3.53
2022-10-17T03:46:26.749Z,4.20
2022-10-17T03:48:56.557Z,3.88
2022-10-17T03:51:25.650Z,3.60
2022-10-17T03:54:01.477Z,3.90
2022-10-17T03:56:31.751Z,3.63
2022-10-17T03:59:06.223Z,5.00
2022-10-17T04:01:37.631Z,3.80
2022-10-17T04:04:06.539Z,3.47
2022-10-17T04:06:37.967Z,3.70
2022-10-17T04:09:08.687Z,4.78
2022-10-17T04:11:50.591Z,4.75
2022-10-17T04:14:19.493Z,4.25
2022-10-17T04:16:48.321Z,3.97
2022-10-17T04:19:20.594Z,4.55
2022-10-17T04:21:49.799Z,5.03
2022-10-17T04:24:20.605Z,4.60
2022-10-17T04:27:10.938Z,4.32
2022-10-17T04:29:44.003Z,4.40
2022-10-17T04:32:18.590Z,3.92
2022-10-17T04:34:55.277Z,3.60
2022-10-17T04:37:25.615Z,3.45
2022-10-17T04:39:57.308Z,3.38
2022-10-17T04:42:26.580Z,3.25
2022-10-17T04:44:55.798Z,3.00
2022-10-17T04:47:26.992Z,3.08
2022-10-17T04:49:57.097Z,3.30
2022-10-17T04:52:26.434Z,4.43
2022-10-17T04:54:57.308Z,3.90
2022-10-17T04:57:25.933Z,3.55
2022-10-17T05:00:06.506Z,3.45
2022-10-17T05:02:58.160Z,3.45
2022-10-17T05:05:28.827Z,3.55
2022-10-17T05:07:58.962Z,3.70
2022-10-17T05:10:37.457Z,3.65
2022-10-17T05:13:07.642Z,3.63
2022-10-17T05:15:38.033Z,3.03
2022-10-17T05:18:07.864Z,2.60
2022-10-17T05:20:37.489Z,2.90
2022-10-17T05:23:07.791Z,2.90
2022-10-17T05:25:42.971Z,3.50
2022-10-17T05:28:11.691Z,2.80
2022-10-17T05:30:42.329Z,3.50
2022-10-17T05:33:11.374Z,3.63
2022-10-17T05:35:40.415Z,3.85
2022-10-17T05:38:09.231Z,3.72
2022-10-17T05:40:39.501Z,3.33
2022-10-17T05:43:10.145Z,3.22
2022-10-17T05:45:38.809Z,3.03
2022-10-17T05:48:10.814Z,2.63
2022-10-17T05:50:39.222Z,2.97
2022-10-17T05:53:15.625Z,3.03
2022-10-17T05:55:56.667Z,3.15
2022-10-17T06:01:32.939Z,2.65
2022-10-17T06:04:01.772Z,2.95
2022-10-17T06:06:30.902Z,2.97
2022-10-17T06:08:59.436Z,3.28
2022-10-17T06:11:33.374Z,2.65
2022-10-17T06:14:03.547Z,3.10
2022-10-17T06:16:32.726Z,2.72
2022-10-17T06:19:01.845Z,4.00
2022-10-17T06:21:34.688Z,4.47
2022-10-17T06:24:09.261Z,3.53
2022-10-17T06:26:40.499Z,4.00
2022-10-17T06:29:12.392Z,3.97
2022-10-17T06:31:48.199Z,3.65
2022-10-17T06:34:17.452Z,3.58
2022-10-17T06:36:46.978Z,4.05
2022-10-17T06:39:17.135Z,4.40
2022-10-17T06:41:58.789Z,5.03
2022-10-17T06:44:42.844Z,5.22
2022-10-17T06:47:30.906Z,4.85
2022-10-17T06:50:02.313Z,6.68
2022-10-17T06:52:40.823Z,6.60
2022-10-17T06:55:41.483Z,7.90
2022-10-17T06:58:25.499Z,9.40
2022-10-17T07:01:19.083Z,11.05
2022-10-17T07:03:50.184Z,8.25
2022-10-17T07:06:19.502Z,8.40
2022-10-17T07:08:49.944Z,14.90
2022-10-17T07:11:22.463Z,10.27
2022-10-17T07:13:53.766Z,10.32
2022-10-17T07:16:24.958Z,9.20
2022-10-17T07:19:01.772Z,11.88
2022-10-17T07:21:39.041Z,9.35
2022-10-17T07:24:09.185Z,11.93
2022-10-17T07:26:37.746Z,16.13
2022-10-17T07:29:07.491Z,12.75
2022-10-17T07:31:41.361Z,15.10
2022-10-17T07:34:10.402Z,13.73
2022-10-17T07:36:38.800Z,13.98
2022-10-17T07:39:09.208Z,14.70
2022-10-17T07:41:39.208Z,13.77
2022-10-17T07:44:08.973Z,12.10
2022-10-17T07:46:46.153Z,12.90
2022-10-17T07:49:14.987Z,16.13
2022-10-17T07:51:44.297Z,13.60
2022-10-17T07:54:14.357Z,15.98
2022-10-17T07:56:42.758Z,20.80
2022-10-17T07:59:11.914Z,18.63
2022-10-17T08:01:40.261Z,10.80
2022-10-17T08:04:10.984Z,11.63
2022-10-17T08:06:39.795Z,11.48
2022-10-17T08:09:08.487Z,11.65
2022-10-17T08:11:37.452Z,21.63
2022-10-17T08:14:05.850Z,16.73
2022-10-17T08:16:35.108Z,16.30
2022-10-17T08:19:05.065Z,13.07
2022-10-17T08:21:34.888Z,11.95
2022-10-17T08:24:04.592Z,10.73
2022-10-17T08:26:33.410Z,13.38
2022-10-17T08:29:02.315Z,11.25
2022-10-17T08:31:30.737Z,9.73
2022-10-17T08:34:00.643Z,9.98
2022-10-17T08:36:29.184Z,10.20
2022-10-17T08:38:59.879Z,9.75
2022-10-17T08:41:46.697Z,10.65
2022-10-17T08:44:31.229Z,10.68
2022-10-17T08:47:03.786Z,13.68
2022-10-17T08:49:41.556Z,10.50
2022-10-17T08:52:21.422Z,11.48
2022-10-17T08:54:52.800Z,10.52
2022-10-17T08:57:21.336Z,9.55
2022-10-17T08:59:52.444Z,8.98
2022-10-17T09:02:36.597Z,7.93
2022-10-17T09:05:28.665Z,8.55
2022-10-17T09:08:06.113Z,7.13
2022-10-17T09:10:47.712Z,7.47
2022-10-17T09:13:25.830Z,6.80
2022-10-17T09:16:05.452Z,11.77
2022-10-17T09:18:37.987Z,7.10
2022-10-17T09:21:18.729Z,6.53
2022-10-17T09:23:59.459Z,5.82
2022-10-17T09:26:40.394Z,6.60
2022-10-17T09:29:19.793Z,7.43
2022-10-17T09:31:53.228Z,5.80
2022-10-17T09:34:26.746Z,5.88
2022-10-17T09:36:56.383Z,4.82
2022-10-17T09:39:27.067Z,5.43
2022-10-17T09:41:59.127Z,4.50
2022-10-17T09:44:33.047Z,3.95
2022-10-17T09:47:14.297Z,4.57
2022-10-17T09:49:44.418Z,4.22
2022-10-17T09:52:15.814Z,3.80
2022-10-17T09:54:48.410Z,4.00
2022-10-17T09:57:19.615Z,3.75
2022-10-17T09:59:57.278Z,3.75
2022-10-17T10:02:27.418Z,3.75
2022-10-17T10:05:05.126Z,3.30
2022-10-17T10:07:37.980Z,3.13
2022-10-17T10:10:09.249Z,3.80
2022-10-17T10:12:41.111Z,3.08
2022-10-17T10:15:33.395Z,3.30
2022-10-17T10:18:02.512Z,2.60
2022-10-17T10:20:34.665Z,3.15
2022-10-17T10:23:17.582Z,3.00
2022-10-17T10:25:56.879Z,3.22
2022-10-17T10:28:30.702Z,2.78
2022-10-17T10:31:05.002Z,2.70
2022-10-17T10:33:41.382Z,2.72
2022-10-17T10:36:11.168Z,2.88
2022-10-17T10:38:43.327Z,3.22
2022-10-17T10:41:13.343Z,3.00
2022-10-17T10:43:46.219Z,3.00
2022-10-17T10:46:20.600Z,2.58
2022-10-17T10:48:52.696Z,2.72
2022-10-17T10:51:28.631Z,2.70
2022-10-17T10:54:03.340Z,2.67
2022-10-17T10:56:38.075Z,2.47
2022-10-17T10:59:15.533Z,2.53
2022-10-17T11:01:52.583Z,2.67
2022-10-17T11:04:29.298Z,2.63
2022-10-17T11:07:04.357Z,2.50
2022-10-17T11:09:52.470Z,2.58
2022-10-17T11:12:25.262Z,2.60
2022-10-17T11:15:02.290Z,2.47
2022-10-17T11:17:37.758Z,2.63
2022-10-17T11:20:19.041Z,2.67
2022-10-17T11:22:49.014Z,2.55
2022-10-17T11:25:34.152Z,2.30
2022-10-17T11:28:05.331Z,2.88
2022-10-17T11:30:46.305Z,2.70
2022-10-17T11:33:19.602Z,2.20
2022-10-17T11:35:52.818Z,2.72
2022-10-17T11:38:29.211Z,2.30
2022-10-17T11:41:00.818Z,2.50
2022-10-17T11:43:33.751Z,2.60
2022-10-17T11:46:13.855Z,2.50
2022-10-17T11:48:46.739Z,2.75
2022-10-17T11:54:13.411Z,2.50
2022-10-17T11:56:50.439Z,2.28
2022-10-17T11:59:49.679Z,2.60
2022-10-17T12:02:29.756Z,2.60
2022-10-17T12:05:06.931Z,2.67
2022-10-17T12:07:49.810Z,2.47
2022-10-17T12:10:31.012Z,2.67
2022-10-17T12:13:41.519Z,2.50
2022-10-17T12:16:45.074Z,2.60
2022-10-17T12:19:33.103Z,2.80
2022-10-17T12:22:06.939Z,2.63
2022-10-17T12:24:40.679Z,2.70
2022-10-17T12:27:46.199Z,2.55
2022-10-17T12:30:24.766Z,2.80
2022-10-17T12:33:06.078Z,2.83
2022-10-17T12:35:39.205Z,2.30
2022-10-17T12:38:29.663Z,2.72
2022-10-17T12:41:03.503Z,2.58
2022-10-17T12:46:56.637Z,2.15
2022-10-17T12:49:42.477Z,2.10
2022-10-17T12:52:55.732Z,2.75
2022-10-17T12:55:26.713Z,2.10
2022-10-17T12:58:00.597Z,2.72
2022-10-17T13:00:35.173Z,2.58
2022-10-17T13:03:08.349Z,2.75
2022-10-17T13:05:39.823Z,2.60
2022-10-17T13:08:14.970Z,2.95
2022-10-17T13:10:51.555Z,2.53
2022-10-17T13:13:23.461Z,2.50
2022-10-17T13:15:54.295Z,2.40
2022-10-17T13:18:25.676Z,2.50
2022-10-17T13:21:00.037Z,2.25
2022-10-17T13:23:32.772Z,2.58
2022-10-17T13:26:14.658Z,2.70
2022-10-17T13:28:43.450Z,2.47
2022-10-17T13:31:41.003Z,2.47
2022-10-17T13:34:19.828Z,2.47
2022-10-17T13:36:51.770Z,2.95
2022-10-17T13:39:38.471Z,2.80
2022-10-17T13:42:23.773Z,2.70
2022-10-17T13:44:53.011Z,2.47
2022-10-17T13:47:23.619Z,2.53
2022-10-17T13:49:55.530Z,2.80
2022-10-17T13:52:27.293Z,3.00
2022-10-17T13:54:57.452Z,3.03
2022-10-17T13:57:29.405Z,2.78
2022-10-17T13:59:59.881Z,2.67
2022-10-17T14:02:30.360Z,2.90
2022-10-17T14:05:19.904Z,2.97
2022-10-17T14:10:44.248Z,2.63
2022-10-17T14:13:23.672Z,2.50
2022-10-17T14:15:53.608Z,3.13
2022-10-17T14:18:25.462Z,3.10
2022-10-17T14:23:45.711Z,3.08
2022-10-17T14:26:17.079Z,3.33
2022-10-17T14:28:49.300Z,3.15
2022-10-17T14:31:32.165Z,3.20
2022-10-17T14:34:02.908Z,3.17
2022-10-17T14:36:35.514Z,3.17
2022-10-17T14:39:10.551Z,2.90
2022-10-17T14:41:45.698Z,2.85
2022-10-17T14:44:23.199Z,2.95
2022-10-17T14:46:55.315Z,3.00
2022-10-17T14:49:32.884Z,2.90
2022-10-17T14:52:23.917Z,2.92
2022-10-17T14:54:52.657Z,2.67
2022-10-17T14:57:25.554Z,2.90
2022-10-17T14:59:56.174Z,3.42
2022-10-17T15:02:25.484Z,3.10
2022-10-17T15:04:54.226Z,3.05
2022-10-17T15:07:23.707Z,2.60
2022-10-17T15:09:54.147Z,3.20
2022-10-17T15:12:25.128Z,3.25
2022-10-17T15:14:55.305Z,3.03
2022-10-17T15:17:27.483Z,3.08
2022-10-17T15:19:56.018Z,3.58
2022-10-17T15:22:25.784Z,3.00
2022-10-17T15:24:54.119Z,4.72
2022-10-17T15:27:24.617Z,3.53
2022-10-17T15:29:53.875Z,4.07
2022-10-17T15:32:23.973Z,3.47
2022-10-17T15:34:52.409Z,3.00
2022-10-17T15:37:22.829Z,4.28
2022-10-17T15:39:54.330Z,4.43
2022-10-17T15:42:24.469Z,4.10
2022-10-17T15:44:52.925Z,4.22
2022-10-17T15:47:26.945Z,4.00
2022-10-17T15:49:56.534Z,3.75
2022-10-17T15:52:25.320Z,3.30
2022-10-17T15:54:56.457Z,3.40
2022-10-17T15:57:30.074Z,3.42
2022-10-17T16:00:00.252Z,3.63
2022-10-17T16:02:31.508Z,3.08
2022-10-17T16:05:00.367Z,3.90
2022-10-17T16:07:29.789Z,3.50
2022-10-17T16:09:58.296Z,3.58
2022-10-17T16:12:31.680Z,4.35
2022-10-17T16:15:00.879Z,4.40
2022-10-17T16:17:29.653Z,4.25
2022-10-17T16:20:00.631Z,3.22
2022-10-17T16:22:33.153Z,3.38
2022-10-17T16:25:09.736Z,3.10
2022-10-17T16:27:39.156Z,3.50
2022-10-17T16:30:09.575Z,3.35
2022-10-17T16:32:37.966Z,3.08
2022-10-17T16:35:09.995Z,3.20
2022-10-17T16:37:38.519Z,3.38
2022-10-17T16:40:08.171Z,3.53
2022-10-17T16:42:37.336Z,3.42
2022-10-17T16:45:06.593Z,3.22
2022-10-17T16:47:35.547Z,3.28
2022-10-17T16:50:04.059Z,4.05
2022-10-17T16:52:33.847Z,3.85
2022-10-17T16:55:02.849Z,4.40
2022-10-17T16:57:31.280Z,4.72
2022-10-17T17:00:00.363Z,5.43
2022-10-17T17:02:29.231Z,4.15
2022-10-17T17:04:57.877Z,4.00
2022-10-17T17:07:27.491Z,4.00
2022-10-17T17:09:57.283Z,4.00
2022-10-17T17:12:25.763Z,3.88
2022-10-17T17:14:54.530Z,4.78
2022-10-17T17:17:37.055Z,3.97
2022-10-17T17:20:11.719Z,4.00
2022-10-17T17:22:40.551Z,3.97
2022-10-17T17:25:11.038Z,4.43
2022-10-17T17:27:39.440Z,4.53
2022-10-17T17:30:09.192Z,4.18
2022-10-17T17:32:37.548Z,4.72
2022-10-17T17:35:06.744Z,4.20
2022-10-17T17:37:35.625Z,5.68
2022-10-17T17:40:05.904Z,5.25
2022-10-17T17:42:36.262Z,5.00
2022-10-17T17:45:05.648Z,3.97
2022-10-17T17:47:34.375Z,4.15
2022-10-17T17:50:03.553Z,4.40
2022-10-17T17:52:32.636Z,3.65
2022-10-17T17:55:01.280Z,4.00
2022-10-17T17:57:30.547Z,4.10
2022-10-17T18:00:00.690Z,3.50
2022-10-17T18:02:29.999Z,3.85
2022-10-17T18:04:58.613Z,3.85
2022-10-17T18:07:27.280Z,3.45
2022-10-17T18:09:57.320Z,3.90
2022-10-17T18:12:25.767Z,4.30
2022-10-17T18:14:54.426Z,4.15
2022-10-17T18:17:24.626Z,4.38
2022-10-17T18:19:52.913Z,3.83
2022-10-17T18:22:22.974Z,4.47
2022-10-17T18:24:51.331Z,4.47
2022-10-17T18:27:19.677Z,4.68
2022-10-17T18:29:48.087Z,5.18
2022-10-17T18:32:17.227Z,5.22
2022-10-17T18:34:47.839Z,4.30
2022-10-17T18:37:16.417Z,5.22
2022-10-17T18:39:45.024Z,4.70
2022-10-17T18:42:13.338Z,4.50
2022-10-17T18:44:42.229Z,4.60
2022-10-17T18:47:11.241Z,4.72
2022-10-17T18:49:39.737Z,4.40
2022-10-17T18:52:09.656Z,4.03
2022-10-17T18:54:38.191Z,4.28
2022-10-17T18:57:07.314Z,4.40
2022-10-17T18:59:35.811Z,4.57
2022-10-17T19:02:04.272Z,4.05
2022-10-17T19:04:32.650Z,4.22
2022-10-17T19:07:01.035Z,4.55
2022-10-17T19:09:30.923Z,5.30
2022-10-17T19:12:00.168Z,5.00
2022-10-17T19:14:30.714Z,4.53
2022-10-17T19:16:59.656Z,5.65
2022-10-17T19:19:28.471Z,5.57
2022-10-17T19:21:57.097Z,5.75
2022-10-17T19:24:27.709Z,5.03
2022-10-17T19:27:02.499Z,5.15
2022-10-17T19:29:33.438Z,4.90
2022-10-17T19:32:02.585Z,5.50
2022-10-17T19:34:31.007Z,5.15
2022-10-17T19:37:00.178Z,5.22
2022-10-17T19:39:28.641Z,5.10
2022-10-17T19:42:04.293Z,4.75
2022-10-17T19:44:35.199Z,4.93
2022-10-17T19:47:03.965Z,4.45
2022-10-17T19:49:32.372Z,4.85
2022-10-17T19:52:01.181Z,4.43
2022-10-17T19:54:29.833Z,4.90
2022-10-17T19:56:59.965Z,4.75
2022-10-17T19:59:28.335Z,4.32
2022-10-17T20:01:57.118Z,5.10
2022-10-17T20:04:26.539Z,5.75
2022-10-17T20:06:55.491Z,4.70
2022-10-17T20:09:25.105Z,4.90
2022-10-17T20:11:53.487Z,5.30
2022-10-17T20:14:23.407Z,5.47
2022-10-17T20:16:53.551Z,5.28
2022-10-17T20:19:22.220Z,5.85
2022-10-17T20:21:51.005Z,5.55
2022-10-17T20:24:19.778Z,5.03
2022-10-17T20:26:48.164Z,6.05
2022-10-17T20:29:18.859Z,5.55
2022-10-17T20:31:49.420Z,5.68
2022-10-17T20:34:20.098Z,5.22
2022-10-17T20:36:49.127Z,5.75
2022-10-17T20:39:20.214Z,5.00
2022-10-17T20:41:49.492Z,4.50
2022-10-17T20:44:17.881Z,4.65
2022-10-17T20:47:01.059Z,4.63
2022-10-17T20:49:31.831Z,4.88
2022-10-17T20:52:01.502Z,4.63
2022-10-17T20:54:29.942Z,5.47
2022-10-17T20:57:02.488Z,4.05
2022-10-17T20:59:34.791Z,4.65
2022-10-17T21:02:05.848Z,4.13
2022-10-17T21:04:45.890Z,4.53
2022-10-17T21:07:15.665Z,4.88
2022-10-17T21:09:45.389Z,4.70
2022-10-17T21:12:21.719Z,4.22
2022-10-17T21:15:00.435Z,4.72
2022-10-17T21:17:30.830Z,4.95
2022-10-17T21:19:59.180Z,4.35
2022-10-17T21:22:28.352Z,4.88
2022-10-17T21:24:56.904Z,4.88
2022-10-17T21:27:25.525Z,4.28
2022-10-17T21:29:54.595Z,4.63
2022-10-17T21:32:39.454Z,4.47
2022-10-17T21:35:13.497Z,4.82
2022-10-17T21:37:41.947Z,4.80
2022-10-17T21:40:12.070Z,4.70
2022-10-17T21:42:40.579Z,4.93
2022-10-17T21:45:15.852Z,5.35
2022-10-17T21:48:11.691Z,4.90
2022-10-17T21:50:39.948Z,4.60
2022-10-17T21:53:08.770Z,4.60
2022-10-17T21:55:37.171Z,4.95
2022-10-17T21:58:06.408Z,4.30
2022-10-17T22:00:34.719Z,4.28
2022-10-17T22:03:04.367Z,5.18
2022-10-17T22:05:33.091Z,4.80
2022-10-17T22:08:02.864Z,4.97
2022-10-17T22:10:32.238Z,4.60
2022-10-17T22:13:00.593Z,4.25
2022-10-17T22:15:30.570Z,3.90
2022-10-17T22:17:58.929Z,4.55
2022-10-17T22:20:27.893Z,4.68
2022-10-17T22:22:56.611Z,4.10
2022-10-17T22:25:26.380Z,4.47
2022-10-17T22:27:55.285Z,4.80
2022-10-17T22:30:24.067Z,4.40
2022-10-17T22:32:52.407Z,4.20
2022-10-17T22:35:21.667Z,5.10
2022-10-17T22:37:50.336Z,4.65
2022-10-17T22:40:18.650Z,4.03
2022-10-17T22:42:49.157Z,4.63
2022-10-17T22:45:17.469Z,4.18
2022-10-17T22:47:46.607Z,4.70
2022-10-17T22:50:15.443Z,4.43
2022-10-17T22:52:43.759Z,3.95
2022-10-17T22:55:12.732Z,4.50
2022-10-17T22:57:42.063Z,4.10
2022-10-17T23:00:14.054Z,4.13
2022-10-17T23:02:42.597Z,4.63
2022-10-17T23:05:11.600Z,4.35
2022-10-17T23:07:40.595Z,4.43
2022-10-17T23:10:09.687Z,4.00
2022-10-17T23:12:38.764Z,4.10
2022-10-17T23:15:08.545Z,4.18
2022-10-17T23:17:38.425Z,4.18
2022-10-17T23:20:09.032Z,4.15
2022-10-17T23:22:37.383Z,3.47
2022-10-17T23:25:06.871Z,3.92
2022-10-17T23:27:35.660Z,3.88
2022-10-17T23:30:05.722Z,3.90
2022-10-17T23:32:34.097Z,3.88
2022-10-17T23:35:04.617Z,3.85
2022-10-17T23:37:33.673Z,4.00
2022-10-17T23:40:02.363Z,4.47
2022-10-17T23:42:31.530Z,3.95
2022-10-17T23:45:00.339Z,4.13
2022-10-17T23:47:28.882Z,4.82
2022-10-17T23:49:57.894Z,4.25
2022-10-17T23:52:27.624Z,4.00
2022-10-17T23:54:55.942Z,3.90
2022-10-17T23:57:24.727Z,3.95
2022-10-17T23:59:53.153Z,4.60
